Terminal Aerodrome Forecast
Issued by NWS

Home | Current Version | Previous Version | Text Only | Print | Product List | Glossary On
Versions: 1 2 3 4 5 6 7 8 9 10 11 12 13 14 15 16 17 18 19 20 21
000
FTUS41 KBGM 281700
TAFELM
TAF
KELM 281720Z 2818/2918 30010KT P6SM -SHRA OVC040
      TEMPO 2818/2820 2SM -SHRA BR OVC008
     FM290000 30007KT P6SM -SHRA OVC040
      TEMPO 2909/2912 1SM BR OVC003
     FM291300 33006KT P6SM SCT250=

USA.gov is the U.S. government's official web portal to all federal, state and local government web resources and services.